createdAt,value
2019-01-02T13:24:52.512Z,103776.45
2019-01-02T13:27:24.665Z,103763.55
2019-01-02T13:29:59.528Z,103758.30
2019-01-02T13:32:40.666Z,103760.12
2019-01-02T13:35:15.794Z,103749.95
2019-01-02T13:37:56.434Z,103747.39
2019-01-02T13:40:37.774Z,103752.76
2019-01-02T13:43:29.165Z,103754.58
2019-01-02T13:46:01.323Z,103756.34
2019-01-02T13:48:42.288Z,103765.73
2019-01-02T13:51:12.497Z,103763.13
2019-01-02T13:53:41.924Z,103766.70
2019-01-02T13:56:11.199Z,103761.38
2019-01-02T13:58:40.540Z,103771.61
2019-01-02T14:01:09.774Z,103775.21
2019-01-02T14:03:39.103Z,103774.67
2019-01-02T14:06:08.319Z,103768.51
2019-01-02T14:08:37.442Z,103775.26
2019-01-02T14:11:06.614Z,103775.26
2019-01-02T14:13:35.837Z,103785.47
2019-01-02T14:16:05.024Z,103785.47
2019-01-02T14:18:35.868Z,103796.11
2019-01-02T14:21:07.155Z,103796.11
2019-01-02T14:23:36.191Z,103787.16
2019-01-02T14:26:05.639Z,103806.26
2019-01-02T14:28:34.921Z,103801.86
2019-01-02T14:31:04.102Z,103807.16
2019-01-02T14:33:33.541Z,103803.55
2019-01-02T14:36:02.753Z,103799.06
2019-01-02T14:38:32.179Z,103805.59
2019-01-02T14:41:01.360Z,103806.13
2019-01-02T14:43:30.592Z,103801.63
2019-01-02T14:45:59.843Z,103805.21
2019-01-02T14:48:28.940Z,103809.55
2019-01-02T14:50:58.132Z,103801.53
2019-01-02T14:53:27.304Z,103799.78
2019-01-02T14:55:56.501Z,103811.48
2019-01-02T14:58:25.839Z,103807.83
2019-01-02T15:00:55.028Z,103806.42
2019-01-02T15:03:24.220Z,103812.14
2019-01-02T15:05:53.418Z,103815.81
2019-01-02T15:08:22.594Z,103814.41
2019-01-02T15:10:52.935Z,103817.52
2019-01-02T15:13:22.269Z,103818.84
2019-01-02T15:15:51.378Z,103817.00
2019-01-02T15:18:20.591Z,103817.94
2019-01-02T15:20:49.803Z,103817.57
2019-01-02T15:23:18.974Z,103817.52
2019-01-02T15:25:48.164Z,103817.08
2019-01-02T15:28:17.375Z,103643.44
2019-01-02T15:30:46.556Z,103815.30
2019-01-02T15:33:16.649Z,103822.79
2019-01-02T15:35:48.912Z,103824.59
2019-01-02T15:38:16.808Z,103822.40
2019-01-02T15:40:45.905Z,103830.42
2019-01-02T15:43:15.094Z,103837.45
2019-01-02T15:45:44.637Z,103837.45
2019-01-02T15:48:13.825Z,103836.59
2019-01-02T15:50:43.416Z,103835.73
2019-01-02T15:53:12.651Z,103838.39
2019-01-02T15:55:41.823Z,103829.90
2019-01-02T15:58:11.035Z,103824.91
2019-01-02T16:00:40.223Z,103846.61
2019-01-02T16:03:09.393Z,103832.51
2019-01-02T16:05:38.583Z,103846.53
2019-01-02T16:08:07.821Z,103849.69
2019-01-02T16:10:36.999Z,103852.30
2019-01-02T16:13:06.208Z,103847.91
2019-01-02T16:15:35.369Z,103847.05
2019-01-02T16:18:04.622Z,103850.23
2019-01-02T16:20:33.820Z,103847.14
2019-01-02T16:23:02.992Z,103850.32
2019-01-02T16:25:32.171Z,103847.61
2019-01-02T16:28:04.243Z,103847.30
2019-01-02T16:30:33.418Z,103852.08
2019-01-02T16:33:02.656Z,103853.34
2019-01-02T16:35:31.859Z,103850.66
2019-01-02T16:38:00.954Z,103856.48
2019-01-02T16:40:30.124Z,103857.82
2019-01-02T16:42:59.324Z,103869.33
2019-01-02T16:45:28.496Z,103868.33
2019-01-02T16:47:57.679Z,103871.53
2019-01-02T16:50:26.874Z,103878.06
2019-01-02T16:52:56.055Z,103882.45
2019-01-02T16:55:25.216Z,103874.10
2019-01-02T16:57:54.412Z,103877.73
2019-01-02T17:00:23.590Z,103870.58
2019-01-02T17:02:52.781Z,103870.11
2019-01-02T17:05:21.987Z,103877.77
2019-01-02T17:07:51.162Z,103864.84
2019-01-02T17:10:20.363Z,103878.66
2019-01-02T17:12:49.526Z,103875.08
2019-01-02T17:15:18.776Z,103881.73
2019-01-02T17:17:47.966Z,103879.52
2019-01-02T17:20:17.152Z,103895.55
2019-01-02T17:22:46.358Z,103887.56
2019-01-02T17:25:15.547Z,103888.00
2019-01-02T17:27:44.718Z,103878.23
2019-01-02T17:30:13.913Z,103879.92
2019-01-02T17:32:43.214Z,103870.14
2019-01-02T17:35:12.378Z,103871.05
2019-01-02T17:37:41.550Z,103867.08
2019-01-02T17:40:10.819Z,103862.20
2019-01-02T17:42:39.995Z,103875.13
2019-01-02T17:45:09.440Z,103871.63
2019-01-02T17:47:38.626Z,103874.73
2019-01-02T17:50:09.333Z,103874.33
2019-01-02T17:52:38.527Z,103880.56
2019-01-02T17:55:07.961Z,103875.22
2019-01-02T17:57:39.943Z,103885.02
2019-01-02T18:00:10.999Z,103884.95
2019-01-02T18:02:40.194Z,103882.38
2019-01-02T18:05:09.506Z,103884.59
2019-01-02T18:07:38.679Z,103884.59
2019-01-02T18:10:11.512Z,103886.84
2019-01-02T18:12:40.675Z,103892.17
2019-01-02T18:15:09.918Z,103889.50
2019-01-02T18:17:39.128Z,103893.09
2019-01-02T18:20:09.456Z,103900.66
2019-01-02T18:22:38.667Z,103899.19
2019-01-02T18:25:07.859Z,103898.27
2019-01-02T18:27:38.051Z,103896.03
2019-01-02T18:30:12.187Z,103897.39
2019-01-02T18:32:41.368Z,103889.37
2019-01-02T18:35:12.528Z,103879.63
2019-01-02T18:37:41.740Z,103885.39
2019-01-02T18:40:10.922Z,103891.23
2019-01-02T18:42:40.958Z,103887.62
2019-01-02T18:45:10.224Z,103893.45
2019-01-02T18:47:39.407Z,103896.14
2019-01-02T18:50:09.526Z,103892.91
2019-01-02T18:52:38.725Z,103893.80
2019-01-02T18:55:07.956Z,103893.78
2019-01-02T18:57:37.123Z,103900.84
2019-01-02T19:00:09.182Z,103901.30
2019-01-02T19:02:38.363Z,103904.87
2019-01-02T19:05:07.916Z,103905.66
2019-01-02T19:07:37.114Z,103912.37
2019-01-02T19:10:06.700Z,103907.09
2019-01-02T19:12:35.886Z,103915.33
2019-01-02T19:15:06.597Z,103912.22
2019-01-02T19:17:35.816Z,103921.04
2019-01-02T19:20:06.459Z,103916.51
2019-01-02T19:22:35.666Z,103927.19
2019-01-02T19:25:05.698Z,103922.81
2019-01-02T19:27:34.878Z,103922.31
2019-01-02T19:30:04.864Z,103924.71
2019-01-02T19:32:34.082Z,103924.14
2019-01-02T19:35:03.325Z,103917.96
2019-01-02T19:37:32.490Z,103915.69
2019-01-02T19:40:01.678Z,103920.69
2019-01-02T19:42:30.880Z,103922.41
2019-01-02T19:45:00.091Z,103915.15
2019-01-02T19:47:29.339Z,103913.08
2019-01-02T19:49:58.425Z,103918.80
2019-01-02T19:52:28.537Z,103920.66
2019-01-02T19:54:59.782Z,103919.68
2019-01-02T19:57:29.033Z,103916.95
2019-01-02T19:59:58.232Z,103917.40
2019-01-02T20:02:27.407Z,103918.73
2019-01-02T20:04:57.567Z,103920.56
2019-01-02T20:07:26.837Z,103917.58
2019-01-02T20:09:56.190Z,103912.92
2019-01-02T20:12:25.374Z,103910.23
2019-01-02T20:14:54.564Z,103916.42
2019-01-02T20:17:23.748Z,103911.06
2019-01-02T20:19:52.952Z,103910.20
2019-01-02T20:22:22.179Z,103906.75
2019-01-02T20:24:51.375Z,103903.05
2019-01-02T20:27:20.549Z,103907.58
2019-01-02T20:29:49.740Z,103907.52
2019-01-02T20:32:18.932Z,103903.58
2019-01-02T20:34:48.153Z,103912.96
2019-01-02T20:37:17.332Z,103906.24
2019-01-02T20:39:46.507Z,103903.58
2019-01-02T20:42:16.682Z,103898.67
2019-01-02T20:44:45.862Z,103903.93
2019-01-02T20:47:15.038Z,103900.83
2019-01-02T20:49:44.211Z,103908.94
2019-01-02T20:52:13.405Z,103906.09
2019-01-02T20:54:42.577Z,103897.63
2019-01-02T20:57:13.743Z,103905.58
2019-01-02T20:59:42.922Z,103899.88
